Time;durP1;ratioP1;P1;durP2;ratioP2;P2;SDS_P1;SDS_P2;PMS_P1;PMS_P2;Temp;Humidity;BMP_temperature;BMP_pressure;BME280_temperature;BME280_humidity;BME280_pressure;Samples;Min_cycle;Max_cycle;Signal;HPM_P1;HPM_P2
2023/07/25 00:00:10;;;;;;;0.40;0.40;;;14.50;99.90;;;;;;5086912;28;20212;-94
2023/07/25 00:02:36;;;;;;;0.20;0.20;;;14.50;99.90;;;;;;5093330;28;20217;-96
2023/07/25 00:05:04;;;;;;;0.50;0.50;;;14.50;99.90;;;;;;5093843;28;20427;-95
2023/07/25 00:07:29;;;;;;;0.37;0.37;;;14.50;99.90;;;;;;5093378;28;20184;-94
2023/07/25 00:09:56;;;;;;;0.30;0.30;;;14.60;99.90;;;;;;5081899;28;20447;-95
2023/07/25 00:12:22;;;;;;;0.50;0.50;;;14.60;99.90;;;;;;5076512;28;20177;-94
2023/07/25 00:14:48;;;;;;;0.50;0.50;;;14.50;99.90;;;;;;5075714;28;20511;-95
2023/07/25 00:17:13;;;;;;;0.40;0.40;;;14.60;99.90;;;;;;5091161;28;20181;-96
2023/07/25 00:19:39;;;;;;;0.90;0.90;;;14.70;99.90;;;;;;5083575;28;20201;-95
2023/07/25 00:22:05;;;;;;;0.50;0.50;;;14.60;99.90;;;;;;5079855;28;20323;-96
2023/07/25 00:24:30;;;;;;;0.60;0.60;;;14.70;99.90;;;;;;5088363;28;20220;-94
2023/07/25 00:26:56;;;;;;;0.50;0.50;;;14.70;99.90;;;;;;5080709;28;20427;-95
2023/07/25 00:29:21;;;;;;;0.40;0.40;;;14.60;99.90;;;;;;5078654;28;20201;-95
2023/07/25 00:31:47;;;;;;;0.60;0.60;;;14.70;99.90;;;;;;5089373;28;20197;-94
2023/07/25 00:34:12;;;;;;;0.43;0.43;;;14.70;99.90;;;;;;5087756;28;20187;-96
2023/07/25 00:36:38;;;;;;;0.30;0.30;;;14.60;99.90;;;;;;5090953;28;20238;-95
2023/07/25 00:39:03;;;;;;;0.40;0.40;;;14.70;99.90;;;;;;5092598;28;20191;-95
2023/07/25 00:41:29;;;;;;;0.10;0.10;;;14.70;99.90;;;;;;5093183;28;20205;-95
2023/07/25 00:43:54;;;;;;;0.50;0.50;;;14.60;99.90;;;;;;5093840;28;20177;-95
2023/07/25 00:46:20;;;;;;;0.40;0.40;;;14.60;99.90;;;;;;5093215;28;20181;-96
2023/07/25 00:48:46;;;;;;;0.60;0.60;;;14.70;99.90;;;;;;5091474;28;20281;-95
2023/07/25 00:51:12;;;;;;;0.27;0.27;;;14.60;99.90;;;;;;5077553;28;20432;-95
2023/07/25 00:53:38;;;;;;;0.53;0.53;;;14.60;99.90;;;;;;5083020;28;20177;-95
2023/07/25 00:56:05;;;;;;;0.47;0.47;;;14.60;99.90;;;;;;5073432;28;20428;-94
2023/07/25 00:58:31;;;;;;;0.50;0.50;;;14.60;99.90;;;;;;5088737;28;20428;-96
2023/07/25 01:01:04;;;;;;;0.90;0.90;;;14.60;99.90;;;;;;5092537;28;21411;-94
2023/07/25 01:03:32;;;;;;;0.30;0.30;;;14.60;99.90;;;;;;5084938;28;20276;-96
2023/07/25 01:06:00;;;;;;;0.20;0.20;;;14.70;99.90;;;;;;5076876;28;20967;-95
2023/07/25 01:08:25;;;;;;;0.40;0.40;;;14.70;99.90;;;;;;5085609;28;20424;-95
2023/07/25 01:10:51;;;;;;;0.30;0.30;;;14.70;99.90;;;;;;5094888;28;20455;-94
2023/07/25 01:13:16;;;;;;;0.20;0.20;;;14.70;99.90;;;;;;5088113;28;20533;-94
2023/07/25 01:15:42;;;;;;;0.30;0.30;;;14.70;99.90;;;;;;5089702;28;20197;-95
2023/07/25 01:18:09;;;;;;;0.20;0.20;;;14.70;99.90;;;;;;5076576;28;20201;-95
2023/07/25 01:20:35;;;;;;;0.30;0.30;;;14.70;99.90;;;;;;5081949;28;20269;-95
2023/07/25 01:23:02;;;;;;;0.50;0.50;;;14.70;99.90;;;;;;5087141;28;20559;-95
2023/07/25 01:25:28;;;;;;;0.27;0.27;;;14.70;99.90;;;;;;5079502;28;20448;-95
2023/07/25 01:27:53;;;;;;;0.60;0.60;;;14.70;99.90;;;;;;5093112;28;20443;-95
2023/07/25 01:30:19;;;;;;;0.20;0.20;;;14.70;99.90;;;;;;5093688;28;20189;-95
2023/07/25 01:32:45;;;;;;;0.40;0.40;;;14.70;99.90;;;;;;5092242;28;20184;-95
2023/07/25 01:35:10;;;;;;;0.10;0.10;;;14.60;99.90;;;;;;5093047;28;20185;-95
2023/07/25 01:37:36;;;;;;;0.80;0.80;;;14.70;99.90;;;;;;5085687;28;20530;-95
2023/07/25 01:40:02;;;;;;;0.13;0.13;;;14.60;99.90;;;;;;5074811;28;20201;-94
2023/07/25 01:42:28;;;;;;;0.37;0.37;;;14.60;99.90;;;;;;5075119;28;20236;-94
2023/07/25 01:44:53;;;;;;;0.60;0.60;;;14.70;99.90;;;;;;5093498;28;20986;-95
2023/07/25 01:47:25;;;;;;;0.50;0.50;;;14.60;99.90;;;;;;5094056;28;20181;-94
2023/07/25 01:49:50;;;;;;;0.47;0.47;;;14.60;99.90;;;;;;5092658;28;20828;-94
2023/07/25 01:52:16;;;;;;;0.40;0.40;;;14.50;99.90;;;;;;5088837;28;20439;-94
2023/07/25 01:54:41;;;;;;;0.50;0.50;;;14.40;99.90;;;;;;5075733;28;20177;-95
2023/07/25 01:57:07;;;;;;;0.60;0.60;;;14.40;99.90;;;;;;5076123;28;20523;-95
2023/07/25 01:59:32;;;;;;;0.60;0.60;;;14.30;99.90;;;;;;5075574;28;20222;-94
2023/07/25 02:01:58;;;;;;;0.60;0.60;;;14.30;99.90;;;;;;5085598;28;20206;-94
2023/07/25 02:04:23;;;;;;;0.30;0.30;;;14.30;99.90;;;;;;5088613;28;20739;-94
2023/07/25 02:06:49;;;;;;;0.27;0.27;;;14.30;99.90;;;;;;5075390;28;20185;-92
2023/07/25 02:09:14;;;;;;;0.50;0.50;;;14.30;99.90;;;;;;5093102;28;20649;-94
2023/07/25 02:11:40;;;;;;;0.37;0.37;;;14.30;99.90;;;;;;5095068;28;20177;-93
2023/07/25 02:14:05;;;;;;;0.30;0.30;;;14.30;99.90;;;;;;5094398;28;20185;-94
2023/07/25 02:16:33;;;;;;;0.50;0.50;;;14.30;99.90;;;;;;5079430;28;20271;-92
2023/07/25 02:18:59;;;;;;;0.40;0.40;;;14.20;99.90;;;;;;5074863;28;20178;-93
2023/07/25 02:21:24;;;;;;;0.20;0.20;;;14.20;99.90;;;;;;5091381;28;20513;-93
2023/07/25 02:23:50;;;;;;;0.10;0.10;;;14.10;99.90;;;;;;5091249;28;20177;-95
2023/07/25 02:26:15;;;;;;;0.30;0.30;;;14.10;99.90;;;;;;5081293;28;20221;-94
2023/07/25 02:28:41;;;;;;;0.30;0.30;;;14.10;99.90;;;;;;5088353;28;20531;-94
2023/07/25 02:31:06;;;;;;;0.63;0.63;;;14.00;99.90;;;;;;5091579;28;20181;-94
2023/07/25 02:33:32;;;;;;;0.30;0.30;;;14.00;99.90;;;;;;5091412;28;20184;-95
2023/07/25 02:35:57;;;;;;;0.10;0.10;;;14.00;99.90;;;;;;5095680;28;20637;-94
2023/07/25 02:38:23;;;;;;;0.40;0.40;;;13.90;99.90;;;;;;5092017;28;20224;-94
2023/07/25 02:40:49;;;;;;;0.23;0.23;;;13.90;99.90;;;;;;5093561;28;20173;-94
2023/07/25 02:43:14;;;;;;;0.30;0.30;;;13.80;99.90;;;;;;5092621;28;20435;-94
2023/07/25 02:45:40;;;;;;;0.30;0.30;;;13.80;99.90;;;;;;5094659;28;20630;-94
2023/07/25 02:48:05;;;;;;;0.70;0.70;;;13.80;99.90;;;;;;5090282;28;20532;-93
2023/07/25 02:50:31;;;;;;;0.30;0.30;;;13.80;99.90;;;;;;5094879;28;20256;-93
2023/07/25 02:52:56;;;;;;;0.20;0.20;;;13.70;99.90;;;;;;5091205;28;20189;-94
2023/07/25 02:55:22;;;;;;;0.30;0.30;;;13.70;99.90;;;;;;5094824;28;20177;-93
2023/07/25 02:57:47;;;;;;;0.60;0.60;;;13.70;99.90;;;;;;5090863;28;20186;-94
2023/07/25 03:00:13;;;;;;;0.43;0.43;;;13.60;99.90;;;;;;5089396;28;20188;-94
2023/07/25 03:02:39;;;;;;;0.40;0.40;;;13.60;99.90;;;;;;5073909;28;20620;-93
2023/07/25 03:05:05;;;;;;;0.30;0.30;;;13.40;99.90;;;;;;5073772;28;20439;-92
2023/07/25 03:07:30;;;;;;;0.47;0.47;;;13.40;99.90;;;;;;5077721;28;20205;-93
2023/07/25 03:09:56;;;;;;;0.70;0.70;;;13.40;99.90;;;;;;5074610;28;20174;-93
2023/07/25 03:12:21;;;;;;;0.30;0.30;;;13.40;99.90;;;;;;5081752;28;20185;-93
2023/07/25 03:14:47;;;;;;;0.80;0.80;;;13.30;99.90;;;;;;5081754;28;20275;-93
2023/07/25 03:17:12;;;;;;;0.37;0.37;;;13.40;99.90;;;;;;5088364;28;20186;-94
2023/07/25 03:19:37;;;;;;;0.43;0.43;;;13.30;99.90;;;;;;5073911;28;20260;-94
2023/07/25 03:22:03;;;;;;;0.23;0.23;;;13.40;99.90;;;;;;5077072;28;20657;-92
2023/07/25 03:24:29;;;;;;;0.30;0.30;;;13.30;99.90;;;;;;5087309;28;20217;-94
2023/07/25 03:26:54;;;;;;;0.40;0.40;;;13.30;99.90;;;;;;5085474;28;20682;-96
2023/07/25 03:29:20;;;;;;;0.10;0.10;;;13.30;99.90;;;;;;5085247;28;20173;-95
2023/07/25 03:31:45;;;;;;;0.10;0.10;;;13.40;99.90;;;;;;5086222;28;20186;-93
2023/07/25 03:34:11;;;;;;;0.60;0.60;;;13.30;99.90;;;;;;5077501;28;20177;-91
2023/07/25 03:36:36;;;;;;;0.30;0.30;;;13.40;99.90;;;;;;5089772;28;20365;-93
2023/07/25 03:39:02;;;;;;;0.10;0.10;;;13.30;99.90;;;;;;5073461;28;20174;-92
2023/07/25 03:41:28;;;;;;;0.20;0.20;;;13.30;99.90;;;;;;5073280;28;20198;-94
2023/07/25 03:43:53;;;;;;;0.20;0.20;;;13.20;99.90;;;;;;5090307;28;20793;-93
2023/07/25 03:46:19;;;;;;;0.57;0.57;;;13.20;99.90;;;;;;5089891;28;20901;-95
2023/07/25 03:48:44;;;;;;;0.20;0.20;;;13.20;99.90;;;;;;5092080;28;20189;-94
2023/07/25 03:51:10;;;;;;;0.60;0.60;;;13.30;99.90;;;;;;5075207;28;20579;-93
2023/07/25 03:53:35;;;;;;;0.23;0.23;;;13.30;99.90;;;;;;5083187;28;20221;-94
2023/07/25 03:56:01;;;;;;;0.27;0.27;;;13.30;99.90;;;;;;5086503;28;20189;-92
2023/07/25 03:58:26;;;;;;;0.20;0.20;;;13.30;99.90;;;;;;5092287;28;20234;-93
2023/07/25 04:00:52;;;;;;;0.47;0.47;;;13.40;99.90;;;;;;5085721;28;20198;-94
2023/07/25 04:03:17;;;;;;;0.53;0.53;;;13.30;99.90;;;;;;5072556;28;20272;-94
2023/07/25 04:05:43;;;;;;;0.50;0.50;;;13.30;99.90;;;;;;5093023;28;20185;-93
2023/07/25 04:08:08;;;;;;;0.40;0.40;;;13.40;99.90;;;;;;5090451;28;20189;-93
2023/07/25 04:10:34;;;;;;;0.20;0.20;;;13.40;99.90;;;;;;5077927;28;20281;-93
2023/07/25 04:12:59;;;;;;;0.40;0.40;;;13.40;99.90;;;;;;5077741;28;20188;-93
2023/07/25 04:15:25;;;;;;;0.40;0.40;;;13.40;99.90;;;;;;5086975;28;20712;-94
2023/07/25 04:17:50;;;;;;;0.40;0.40;;;13.40;99.90;;;;;;5091767;28;20184;-93
2023/07/25 04:20:16;;;;;;;0.40;0.40;;;13.40;99.90;;;;;;5089361;28;20680;-93
2023/07/25 04:22:41;;;;;;;0.30;0.30;;;13.40;99.90;;;;;;5088912;28;20289;-92
2023/07/25 04:25:07;;;;;;;0.20;0.20;;;13.40;99.90;;;;;;5086852;28;20181;-94
2023/07/25 04:27:32;;;;;;;0.23;0.23;;;13.40;99.90;;;;;;5092570;28;20549;-94
2023/07/25 04:29:58;;;;;;;0.30;0.30;;;13.40;99.90;;;;;;5092608;28;20184;-93
2023/07/25 04:32:23;;;;;;;0.20;0.20;;;13.50;99.90;;;;;;5075363;28;20189;-93
2023/07/25 04:34:49;;;;;;;0.20;0.20;;;13.50;99.90;;;;;;5072603;28;20268;-93
2023/07/25 04:37:14;;;;;;;0.57;0.57;;;13.50;99.90;;;;;;5085938;28;20246;-94
2023/07/25 04:39:40;;;;;;;0.20;0.20;;;13.50;99.90;;;;;;5089030;28;20267;-93
2023/07/25 04:42:05;;;;;;;0.37;0.37;;;13.50;99.90;;;;;;5077064;28;20224;-93
2023/07/25 04:44:31;;;;;;;0.60;0.60;;;13.50;99.90;;;;;;5087461;28;20185;-90
2023/07/25 04:46:56;;;;;;;0.30;0.30;;;13.50;99.90;;;;;;5087297;28;20193;-93
2023/07/25 04:49:22;;;;;;;0.40;0.40;;;13.60;99.90;;;;;;5096326;28;20200;-92
2023/07/25 04:51:47;;;;;;;0.10;0.10;;;13.60;99.90;;;;;;5093018;28;20187;-93
2023/07/25 04:54:13;;;;;;;0.20;0.20;;;13.60;99.90;;;;;;5095635;28;20188;-93
2023/07/25 04:56:40;;;;;;;0.20;0.20;;;13.70;99.90;;;;;;5093121;28;20192;-92
2023/07/25 04:59:06;;;;;;;0.10;0.10;;;13.70;99.90;;;;;;5095090;28;20185;-92
2023/07/25 05:01:32;;;;;;;0.40;0.40;;;13.70;99.90;;;;;;5086695;28;20474;-93
2023/07/25 05:03:57;;;;;;;0.20;0.20;;;13.80;99.90;;;;;;5089062;28;20630;-94
2023/07/25 05:06:23;;;;;;;0.70;0.70;;;13.90;99.90;;;;;;5085747;28;20903;-93
2023/07/25 05:08:48;;;;;;;0.40;0.40;;;13.90;99.90;;;;;;5088643;28;20218;-94
2023/07/25 05:11:14;;;;;;;0.57;0.57;;;14.00;99.90;;;;;;5090717;28;20209;-94
2023/07/25 05:13:39;;;;;;;0.70;0.70;;;14.00;99.90;;;;;;5094200;28;20178;-94
2023/07/25 05:16:05;;;;;;;0.57;0.57;;;14.00;99.90;;;;;;5097006;28;20181;-94
2023/07/25 05:18:30;;;;;;;0.40;0.40;;;14.10;99.90;;;;;;5096875;28;20629;-94
2023/07/25 05:20:56;;;;;;;0.30;0.30;;;14.20;99.90;;;;;;5094034;28;20184;-93
2023/07/25 05:23:21;;;;;;;0.30;0.30;;;14.20;99.90;;;;;;5076120;28;20280;-95
2023/07/25 05:25:47;;;;;;;0.30;0.30;;;14.30;99.90;;;;;;5082295;28;20820;-96
2023/07/25 05:28:13;;;;;;;0.30;0.30;;;14.40;99.90;;;;;;5084747;28;20181;-93
2023/07/25 05:30:38;;;;;;;0.30;0.30;;;14.50;99.90;;;;;;5085615;28;20177;-93
2023/07/25 05:33:03;;;;;;;0.50;0.50;;;14.50;99.90;;;;;;5092020;28;20268;-94
2023/07/25 05:35:29;;;;;;;0.67;0.67;;;14.70;99.90;;;;;;5089316;28;20189;-95
2023/07/25 05:37:55;;;;;;;0.40;0.40;;;14.70;99.90;;;;;;5078918;28;20555;-93
2023/07/25 05:40:20;;;;;;;0.53;0.53;;;14.80;99.90;;;;;;5094961;28;20181;-94
2023/07/25 05:42:47;;;;;;;0.50;0.50;;;14.80;99.90;;;;;;5087814;28;20620;-93
2023/07/25 05:45:13;;;;;;;0.60;0.60;;;14.90;99.90;;;;;;5095097;28;20633;-93
2023/07/25 05:47:38;;;;;;;0.20;0.20;;;15.00;99.90;;;;;;5091918;28;20454;-94
2023/07/25 05:50:04;;;;;;;0.30;0.30;;;15.10;99.90;;;;;;5091738;28;20431;-95
2023/07/25 05:52:30;;;;;;;0.37;0.37;;;15.20;99.90;;;;;;5093286;28;20547;-94
2023/07/25 05:54:55;;;;;;;0.10;0.10;;;15.30;99.90;;;;;;5090561;28;20535;-94
2023/07/25 05:57:21;;;;;;;0.50;0.50;;;15.40;99.90;;;;;;5089524;28;20190;-93
2023/07/25 05:59:46;;;;;;;0.40;0.40;;;15.40;99.90;;;;;;5091628;28;20182;-94
2023/07/25 06:02:12;;;;;;;0.40;0.40;;;15.50;99.90;;;;;;5087196;28;20224;-94
2023/07/25 06:04:38;;;;;;;0.00;0.00;;;15.60;99.90;;;;;;5078615;28;20181;-94
2023/07/25 06:07:04;;;;;;;0.33;0.33;;;15.70;99.90;;;;;;5083644;28;20267;-93
2023/07/25 06:09:30;;;;;;;0.43;0.43;;;15.70;99.90;;;;;;5095538;28;20439;-94
2023/07/25 06:11:56;;;;;;;0.50;0.50;;;15.80;99.90;;;;;;5093510;28;20443;-95
2023/07/25 06:14:21;;;;;;;0.40;0.40;;;15.90;99.90;;;;;;5095353;28;20198;-93
2023/07/25 06:16:47;;;;;;;0.60;0.60;;;15.90;99.90;;;;;;5093493;28;20185;-93
2023/07/25 06:19:13;;;;;;;0.40;0.40;;;15.80;99.90;;;;;;5095608;28;20422;-95
2023/07/25 06:21:38;;;;;;;0.30;0.30;;;15.80;99.90;;;;;;5094103;28;20236;-94
2023/07/25 06:24:04;;;;;;;0.00;0.00;;;16.00;99.90;;;;;;5088649;28;20189;-94
2023/07/25 06:26:29;;;;;;;0.10;0.10;;;16.00;99.90;;;;;;5094531;28;20247;-91
2023/07/25 06:28:55;;;;;;;0.20;0.20;;;16.00;99.90;;;;;;5090468;28;20188;-91
2023/07/25 06:31:20;;;;;;;0.00;0.00;;;16.10;99.90;;;;;;5088621;28;20193;-91
2023/07/25 06:33:46;;;;;;;0.00;0.00;;;16.10;99.90;;;;;;5090782;28;20193;-91
2023/07/25 06:36:11;;;;;;;0.60;0.60;;;16.20;99.90;;;;;;5089826;28;20195;-95
2023/07/25 06:38:37;;;;;;;0.50;0.50;;;16.30;99.90;;;;;;5091580;28;20173;-90
2023/07/25 06:41:02;;;;;;;0.50;0.50;;;16.40;99.90;;;;;;5082353;28;20200;-89
2023/07/25 06:43:28;;;;;;;0.10;0.10;;;16.20;99.90;;;;;;5086928;28;20287;-90
2023/07/25 06:45:54;;;;;;;0.00;0.00;;;16.10;99.90;;;;;;5087394;28;20373;-90
2023/07/25 06:48:19;;;;;;;0.20;0.20;;;16.30;99.90;;;;;;5092468;28;20173;-92
2023/07/25 06:50:45;;;;;;;0.20;0.20;;;16.20;99.90;;;;;;5081075;28;20242;-89
2023/07/25 06:53:11;;;;;;;0.60;0.60;;;16.40;99.90;;;;;;5083910;28;20946;-90
2023/07/25 06:55:39;;;;;;;0.60;0.60;;;16.70;99.90;;;;;;5090060;28;20522;-91
2023/07/25 06:58:05;;;;;;;0.40;0.40;;;16.80;99.90;;;;;;5088401;28;20189;-88
2023/07/25 07:00:31;;;;;;;0.40;0.40;;;16.80;99.90;;;;;;5087951;28;20470;-90
2023/07/25 07:02:56;;;;;;;0.33;0.33;;;16.80;99.90;;;;;;5087184;28;20673;-91
2023/07/25 07:05:22;;;;;;;0.40;0.40;;;16.70;99.90;;;;;;5083463;28;20212;-90
2023/07/25 07:07:48;;;;;;;0.50;0.50;;;16.70;99.90;;;;;;5083657;28;20189;-91
2023/07/25 07:10:13;;;;;;;0.23;0.23;;;17.00;99.90;;;;;;5089983;28;20539;-91
2023/07/25 07:12:45;;;;;;;0.20;0.20;;;16.90;99.90;;;;;;5085476;28;20454;-91
2023/07/25 07:15:12;;;;;;;0.00;0.00;;;17.00;99.90;;;;;;5089451;28;20173;-90
2023/07/25 07:17:37;;;;;;;0.27;0.27;;;17.30;99.90;;;;;;5088866;28;20439;-89
2023/07/25 07:20:04;;;;;;;0.20;0.20;;;17.30;99.90;;;;;;5081602;28;20435;-90
2023/07/25 07:22:30;;;;;;;0.40;0.40;;;17.20;99.90;;;;;;5090978;28;20719;-90
2023/07/25 07:24:55;;;;;;;0.30;0.30;;;17.00;99.90;;;;;;5084501;28;20435;-88
2023/07/25 07:27:22;;;;;;;0.37;0.37;;;16.70;99.90;;;;;;5079676;28;20193;-89
2023/07/25 07:29:48;;;;;;;0.30;0.30;;;16.80;99.90;;;;;;5081730;28;20248;-90
2023/07/25 07:32:14;;;;;;;0.40;0.40;;;16.70;99.90;;;;;;5085618;28;20931;-94
2023/07/25 07:34:39;;;;;;;0.30;0.30;;;16.60;99.90;;;;;;5086634;28;20679;-92
2023/07/25 07:37:05;;;;;;;0.10;0.10;;;16.60;99.90;;;;;;5089276;28;20200;-93
2023/07/25 07:39:30;;;;;;;0.30;0.30;;;16.60;99.90;;;;;;5087161;28;20186;-92
2023/07/25 07:41:56;;;;;;;0.20;0.20;;;16.60;99.90;;;;;;5086772;28;20217;-93
2023/07/25 07:44:21;;;;;;;0.30;0.30;;;16.50;99.90;;;;;;5090623;28;20188;-94
2023/07/25 07:46:47;;;;;;;0.20;0.20;;;16.40;99.90;;;;;;5090697;28;20555;-94
2023/07/25 07:49:12;;;;;;;0.20;0.20;;;16.70;99.90;;;;;;5079972;28;20638;-95
2023/07/25 07:51:38;;;;;;;0.27;0.27;;;16.90;99.90;;;;;;5080295;28;20189;-92
2023/07/25 07:54:03;;;;;;;0.30;0.30;;;17.50;99.90;;;;;;5088976;28;20185;-94
2023/07/25 07:56:29;;;;;;;0.20;0.20;;;17.90;99.90;;;;;;5090408;28;20189;-94
2023/07/25 07:58:54;;;;;;;0.10;0.10;;;18.10;99.90;;;;;;5092092;28;20239;-94
2023/07/25 08:01:21;;;;;;;0.10;0.10;;;18.30;99.90;;;;;;5087835;28;20286;-93
2023/07/25 08:03:47;;;;;;;0.33;0.33;;;18.60;99.90;;;;;;5087121;28;20189;-93
2023/07/25 08:06:13;;;;;;;0.10;0.10;;;18.60;99.90;;;;;;5085534;28;20431;-93
2023/07/25 08:08:40;;;;;;;0.10;0.10;;;18.50;99.90;;;;;;5087484;28;20451;-90
2023/07/25 08:11:06;;;;;;;0.43;0.43;;;18.90;99.90;;;;;;5091213;28;20553;-92
2023/07/25 08:13:31;;;;;;;0.20;0.20;;;19.10;99.90;;;;;;5089431;28;20518;-91
2023/07/25 08:15:57;;;;;;;0.37;0.37;;;18.90;99.90;;;;;;5088596;28;20177;-91
2023/07/25 08:18:23;;;;;;;0.40;0.40;;;18.10;99.90;;;;;;5083971;28;20185;-93
2023/07/25 08:20:58;;;;;;;0.10;0.10;;;17.90;99.90;;;;;;5087964;28;20212;-91
2023/07/25 08:23:25;;;;;;;0.30;0.30;;;17.50;99.90;;;;;;5088918;28;20231;-92
2023/07/25 08:25:51;;;;;;;0.40;0.40;;;17.40;99.90;;;;;;5090729;28;20427;-92
2023/07/25 08:28:17;;;;;;;0.10;0.10;;;17.30;99.90;;;;;;5088562;28;20446;-91
2023/07/25 08:30:43;;;;;;;0.10;0.10;;;17.20;99.90;;;;;;5087890;28;20439;-95
2023/07/25 08:33:10;;;;;;;0.30;0.30;;;17.10;99.90;;;;;;5088854;28;20181;-95
2023/07/25 08:35:36;;;;;;;0.30;0.30;;;17.10;99.90;;;;;;5087389;28;20439;-95
2023/07/25 08:38:01;;;;;;;0.30;0.30;;;17.20;99.90;;;;;;5085468;28;20436;-96
2023/07/25 08:40:27;;;;;;;0.30;0.30;;;17.20;99.90;;;;;;5084673;28;20232;-92
2023/07/25 08:43:01;;;;;;;0.30;0.30;;;17.30;99.90;;;;;;5083988;28;20217;-93
2023/07/25 08:45:27;;;;;;;0.17;0.17;;;17.50;99.90;;;;;;5083861;28;20217;-93
2023/07/25 08:47:54;;;;;;;0.10;0.10;;;17.80;99.90;;;;;;5078737;28;20451;-94
2023/07/25 08:50:22;;;;;;;0.20;0.20;;;18.20;99.90;;;;;;5080318;28;20443;-92
2023/07/25 08:52:52;;;;;;;0.40;0.40;;;18.50;99.90;;;;;;5076430;28;20554;-93
2023/07/25 08:55:20;;;;;;;0.20;0.20;;;18.50;99.90;;;;;;5087679;28;20447;-93
2023/07/25 08:57:48;;;;;;;0.30;0.30;;;18.50;99.90;;;;;;5081843;28;20920;-91
2023/07/25 09:00:14;;;;;;;0.20;0.20;;;18.30;99.90;;;;;;5087146;28;20454;-91
2023/07/25 09:02:40;;;;;;;0.20;0.20;;;18.10;99.90;;;;;;5076761;28;20478;-93
2023/07/25 09:05:06;;;;;;;0.30;0.30;;;18.30;99.90;;;;;;5086343;28;20439;-93
2023/07/25 09:07:32;;;;;;;0.20;0.20;;;18.60;99.90;;;;;;5085960;28;20189;-93
2023/07/25 09:09:58;;;;;;;0.27;0.27;;;19.20;99.90;;;;;;5079715;28;20439;-90
2023/07/25 09:12:24;;;;;;;0.10;0.10;;;18.90;99.90;;;;;;5082741;28;20255;-89
2023/07/25 09:14:51;;;;;;;0.20;0.20;;;19.70;99.90;;;;;;5077719;28;20961;-90
2023/07/25 09:17:17;;;;;;;0.10;0.10;;;20.40;99.90;;;;;;5088055;28;20431;-89
2023/07/25 09:19:42;;;;;;;0.10;0.10;;;20.70;99.90;;;;;;5071853;28;20456;-90
2023/07/25 09:22:26;;;;;;;0.10;0.10;;;20.70;99.90;;;;;;5078579;28;20233;-91
2023/07/25 09:24:52;;;;;;;0.30;0.30;;;20.70;99.90;;;;;;5080374;28;20174;-95
2023/07/25 09:27:18;;;;;;;0.10;0.10;;;20.30;99.90;;;;;;5093641;28;20455;-95
2023/07/25 09:29:44;;;;;;;0.10;0.10;;;20.30;99.90;;;;;;5094079;28;20212;-92
2023/07/25 09:32:25;;;;;;;0.10;0.10;;;20.80;99.90;;;;;;5087149;28;20190;-91
2023/07/25 09:34:59;;;;;;;0.23;0.23;;;20.40;99.90;;;;;;5087419;28;20458;-91
2023/07/25 09:37:24;;;;;;;0.50;0.50;;;21.10;99.90;;;;;;5093120;28;20442;-93
2023/07/25 09:39:50;;;;;;;0.30;0.30;;;20.90;99.90;;;;;;5085282;28;20991;-94
2023/07/25 09:42:16;;;;;;;0.50;0.50;;;20.70;99.90;;;;;;5084002;28;20228;-93
2023/07/25 09:44:49;;;;;;;0.10;0.10;;;20.60;99.90;;;;;;5088596;28;20745;-91
2023/07/25 09:47:21;;;;;;;0.10;0.10;;;19.60;99.90;;;;;;5089946;28;21320;-92
2023/07/25 09:49:48;;;;;;;0.10;0.10;;;19.30;99.90;;;;;;5086692;28;20430;-90
2023/07/25 09:52:13;;;;;;;0.17;0.17;;;18.80;99.90;;;;;;5092258;28;20813;-93
2023/07/25 09:54:39;;;;;;;0.07;0.07;;;18.20;99.90;;;;;;5089011;28;20442;-92
2023/07/25 09:57:05;;;;;;;0.00;0.00;;;18.00;99.90;;;;;;5091933;28;20189;-93
2023/07/25 09:59:31;;;;;;;0.10;0.10;;;18.00;99.90;;;;;;5084785;28;20193;-92
2023/07/25 10:01:57;;;;;;;0.00;0.00;;;17.80;99.90;;;;;;5094435;28;20474;-93
2023/07/25 10:04:24;;;;;;;0.10;0.10;;;17.90;99.90;;;;;;5094425;28;20507;-95
2023/07/25 10:06:52;;;;;;;0.10;0.10;;;18.20;99.90;;;;;;5095197;28;20423;-94
2023/07/25 10:09:18;;;;;;;0.10;0.10;;;18.30;99.90;;;;;;5094300;28;20435;-95
2023/07/25 10:11:44;;;;;;;0.00;0.00;;;19.30;99.90;;;;;;5092760;28;21096;-95
2023/07/25 10:14:09;;;;;;;0.30;0.30;;;19.30;99.90;;;;;;5096491;28;20189;-94
2023/07/25 10:16:37;;;;;;;0.10;0.10;;;19.30;99.90;;;;;;5093746;28;20203;-95
2023/07/25 10:19:05;;;;;;;0.20;0.20;;;19.80;99.90;;;;;;5094701;28;20183;-95
2023/07/25 10:21:51;;;;;;;0.10;0.10;;;19.90;99.90;;;;;;5095233;28;20483;-95
2023/07/25 10:24:19;;;;;;;0.10;0.10;;;20.70;99.90;;;;;;5093928;28;20439;-96
2023/07/25 10:26:59;;;;;;;0.10;0.10;;;21.40;99.90;;;;;;5104866;28;20434;-96
2023/07/25 10:29:36;;;;;;;0.10;0.10;;;21.90;99.90;;;;;;5105669;28;20542;-96
2023/07/25 10:32:02;;;;;;;0.10;0.10;;;22.10;99.90;;;;;;5101129;28;20452;-96
2023/07/25 10:34:48;;;;;;;0.13;0.13;;;22.10;99.90;;;;;;5101058;28;20419;-96
2023/07/25 10:37:38;;;;;;;0.10;0.10;;;22.20;99.90;;;;;;5091936;28;20459;-96
2023/07/25 10:40:04;;;;;;;0.10;0.10;;;21.90;99.90;;;;;;5091828;22;20629;-93
2023/07/25 10:42:57;;;;;;;0.00;0.00;;;22.20;99.90;;;;;;5081889;28;20483;-95
2023/07/25 10:45:45;;;;;;;0.00;0.00;;;21.40;99.90;;;;;;5063017;28;20999;-96
2023/07/25 10:48:27;;;;;;;0.07;0.07;;;21.60;99.90;;;;;;5090070;28;20428;-96
2023/07/25 10:50:54;;;;;;;0.10;0.10;;;21.30;99.90;;;;;;5065324;28;20444;-94
2023/07/25 10:53:20;;;;;;;0.07;0.07;;;21.70;99.90;;;;;;5070050;28;20593;-95
2023/07/25 10:56:04;;;;;;;0.00;0.00;;;22.50;99.90;;;;;;5074383;28;20433;-96
2023/07/25 10:58:33;;;;;;;0.00;0.00;;;23.10;99.90;;;;;;5081262;28;20440;-93
2023/07/25 11:01:00;;;;;;;0.10;0.10;;;23.80;99.90;;;;;;5073816;28;20482;-95
2023/07/25 11:03:29;;;;;;;0.00;0.00;;;24.20;99.90;;;;;;5081530;28;20446;-96
2023/07/25 11:06:06;;;;;;;0.30;0.30;;;24.20;99.90;;;;;;5061915;28;20444;-96
2023/07/25 11:08:37;;;;;;;0.20;0.20;;;24.20;99.90;;;;;;5086280;28;20431;-96
2023/07/25 11:11:05;;;;;;;0.00;0.00;;;23.00;99.90;;;;;;5077212;28;20436;-95
2023/07/25 11:13:33;;;;;;;0.20;0.20;;;23.00;99.90;;;;;;5079350;28;20424;-96
2023/07/25 11:16:01;;;;;;;0.10;0.10;;;22.20;99.90;;;;;;5108949;22;20487;-96
2023/07/25 11:18:27;;;;;;;0.10;0.10;;;23.30;99.90;;;;;;5133823;27;20442;-96
2023/07/25 11:21:04;;;;;;;0.00;0.00;;;23.50;99.90;;;;;;5128622;28;20414;-96
2023/07/25 11:23:30;;;;;;;0.00;0.00;;;24.20;99.90;;;;;;5126801;28;20180;-96
2023/07/25 11:25:57;;;;;;;0.00;0.00;;;23.70;99.90;;;;;;5116360;28;20407;-96
2023/07/25 11:30:55;;;;;;;0.00;0.00;;;25.00;99.90;;;;;;5091637;22;20487;-96
2023/07/25 11:33:22;;;;;;;0.03;0.03;;;24.40;99.90;;;;;;5074365;28;20973;-96
2023/07/25 11:35:57;;;;;;;0.00;0.00;;;23.10;99.90;;;;;;5070449;28;20467;-94
2023/07/25 11:38:24;;;;;;;0.00;0.00;;;24.10;99.90;;;;;;5085089;28;20459;-96
2023/07/25 11:40:55;;;;;;;0.00;0.00;;;24.90;99.90;;;;;;5146391;22;20470;-96
2023/07/25 11:43:21;;;;;;;0.10;0.10;;;24.60;99.90;;;;;;5105226;28;20467;-96
2023/07/25 11:45:48;;;;;;;0.07;0.07;;;24.30;99.90;;;;;;5088635;28;20452;-96
2023/07/25 11:48:16;;;;;;;0.10;0.10;;;24.70;99.90;;;;;;5093097;28;21023;-96
2023/07/25 11:50:43;;;;;;;0.00;0.00;;;24.60;99.90;;;;;;5109961;28;20440;-93
2023/07/25 11:53:10;;;;;;;0.00;0.00;;;23.50;99.90;;;;;;5103855;28;20416;-96
2023/07/25 11:55:36;;;;;;;0.00;0.00;;;22.80;99.90;;;;;;5096864;28;20431;-95
2023/07/25 11:58:02;;;;;;;0.00;0.00;;;23.70;99.90;;;;;;5094155;28;20478;-96
2023/07/25 12:00:39;;;;;;;0.10;0.10;;;24.60;99.90;;;;;;5100913;28;20423;-96
2023/07/25 12:03:16;;;;;;;0.00;0.00;;;25.60;99.90;;;;;;5091536;28;20486;-94
2023/07/25 12:05:42;;;;;;;0.00;0.00;;;26.30;99.90;;;;;;5089032;28;20430;-93
2023/07/25 12:08:07;;;;;;;0.10;0.10;;;25.20;99.90;;;;;;5093334;28;20443;-94
2023/07/25 12:10:35;;;;;;;0.00;0.00;;;23.40;99.90;;;;;;5081209;28;20190;-94
2023/07/25 12:13:02;;;;;;;0.00;0.00;;;23.20;99.90;;;;;;5087745;28;20213;-95
2023/07/25 12:15:51;;;;;;;0.20;0.20;;;21.80;99.90;;;;;;5090394;28;20444;-94
2023/07/25 12:18:30;;;;;;;0.00;0.00;;;21.40;99.90;;;;;;5089625;28;20423;-93
2023/07/25 12:20:58;;;;;;;0.00;0.00;;;21.00;99.90;;;;;;5093620;28;20443;-96
2023/07/25 12:23:31;;;;;;;0.00;0.00;;;21.40;99.90;;;;;;5092844;28;20479;-95
2023/07/25 12:25:59;;;;;;;0.00;0.00;;;21.60;99.90;;;;;;5090594;28;20451;-93
2023/07/25 12:28:25;;;;;;;0.20;0.20;;;21.80;99.90;;;;;;5090979;28;20449;-96
2023/07/25 12:30:51;;;;;;;0.10;0.10;;;23.30;99.90;;;;;;5092746;28;20586;-95
2023/07/25 12:33:16;;;;;;;0.23;0.23;;;24.30;99.90;;;;;;5093438;28;20839;-93
2023/07/25 12:35:42;;;;;;;0.10;0.10;;;24.50;99.90;;;;;;5088098;28;20193;-96
2023/07/25 12:38:07;;;;;;;0.10;0.10;;;25.00;99.90;;;;;;5106482;28;20185;-96
2023/07/25 12:40:33;;;;;;;0.10;0.10;;;25.30;99.90;;;;;;5108916;28;20224;-81
2023/07/25 12:42:58;;;;;;;0.20;0.20;;;24.90;99.90;;;;;;5106717;28;20201;-96
2023/07/25 12:45:24;;;;;;;0.20;0.20;;;24.80;99.90;;;;;;5088336;28;20313;-96
2023/07/25 12:47:49;;;;;;;0.20;0.20;;;23.50;99.90;;;;;;5087644;28;20184;-95